createdAt,value
2019-04-21T00:01:05.743Z,422.13
2019-04-21T00:03:38.345Z,414.17
2019-04-21T00:06:22.366Z,424.67
2019-04-21T00:08:48.426Z,457.70
2019-04-21T00:11:25.056Z,428.67
2019-04-21T00:13:42.731Z,445.13
2019-04-21T00:16:05.187Z,422.97
2019-04-21T00:19:02.124Z,452.70
2019-04-21T00:24:39.506Z,490.60
2019-04-21T00:27:14.153Z,450.43
2019-04-21T00:29:45.690Z,518.60
2019-04-21T00:32:06.907Z,485.87
2019-04-21T00:34:23.749Z,495.40
2019-04-21T00:37:03.073Z,451.67
2019-04-21T00:39:49.593Z,486.80
2019-04-21T00:42:09.916Z,438.50
2019-04-21T00:44:32.047Z,494.90
2019-04-21T00:47:05.494Z,465.20
2019-04-21T00:49:35.721Z,491.23
2019-04-21T00:52:46.223Z,439.40
2019-04-21T00:55:14.019Z,467.57
2019-04-21T00:57:45.542Z,443.17
2019-04-21T01:00:06.947Z,480.43
2019-04-21T01:02:45.510Z,448.37
2019-04-21T01:05:11.184Z,467.73
2019-04-21T01:07:38.520Z,442.87
2019-04-21T01:09:58.734Z,488.77
2019-04-21T01:12:37.315Z,444.83
2019-04-21T01:15:12.250Z,485.90
2019-04-21T01:17:35.770Z,462.00
2019-04-21T01:20:01.736Z,472.23
2019-04-21T01:22:15.139Z,472.03
2019-04-21T01:24:46.666Z,460.90
2019-04-21T01:27:22.618Z,446.37
2019-04-21T01:30:00.064Z,492.57
2019-04-21T01:32:36.933Z,438.47
2019-04-21T01:35:02.704Z,516.00
2019-04-21T01:37:32.920Z,464.17
2019-04-21T01:40:02.328Z,459.27
2019-04-21T01:42:28.596Z,446.93
2019-04-21T01:45:05.518Z,454.90
2019-04-21T01:47:31.382Z,445.00
2019-04-21T01:49:56.803Z,461.10
2019-04-21T01:55:24.936Z,480.30
2019-04-21T01:58:15.962Z,411.73
2019-04-21T02:00:55.486Z,432.50
2019-04-21T02:03:41.662Z,427.13
2019-04-21T02:05:58.716Z,431.80
2019-04-21T02:08:21.631Z,431.17
2019-04-21T02:11:00.278Z,407.20
2019-04-21T02:13:17.104Z,416.43
2019-04-21T02:15:59.410Z,436.37
2019-04-21T02:18:22.074Z,446.73
2019-04-21T02:20:41.327Z,442.83
2019-04-21T02:25:50.885Z,416.27
2019-04-21T02:28:29.800Z,421.90
2019-04-21T02:31:06.167Z,422.57
2019-04-21T02:36:20.826Z,310.30
2019-04-21T02:38:52.890Z,302.40
2019-04-21T02:41:01.340Z,423.50
2019-04-21T02:43:24.919Z,453.47
2019-04-21T02:46:10.322Z,421.30
2019-04-21T02:48:27.930Z,419.60
2019-04-21T02:50:52.103Z,403.70
2019-04-21T02:53:48.302Z,409.03
2019-04-21T02:58:42.077Z,460.97
2019-04-21T03:04:04.766Z,451.23
2019-04-21T03:09:24.062Z,421.13
2019-04-21T03:11:56.072Z,429.03
2019-04-21T03:16:47.074Z,417.87
2019-04-21T03:19:28.848Z,442.60
2019-04-21T03:21:57.453Z,408.33
2019-04-21T03:24:17.523Z,410.60
2019-04-21T03:27:00.647Z,423.77
2019-04-21T03:29:29.534Z,430.23
2019-04-21T03:34:51.545Z,426.17
2019-04-21T03:39:23.085Z,419.67
2019-04-21T03:42:02.025Z,431.77
2019-04-21T03:46:52.620Z,416.40
2019-04-21T03:51:47.559Z,424.63
2019-04-21T03:54:20.236Z,424.30
2019-04-21T03:57:01.431Z,459.47
2019-04-21T03:59:11.164Z,422.97
2019-04-21T04:02:14.850Z,411.53
2019-04-21T04:05:12.728Z,456.83
2019-04-21T04:07:49.830Z,456.77
2019-04-21T04:12:42.763Z,477.23
2019-04-21T04:15:18.648Z,465.33
2019-04-21T04:20:19.228Z,457.60
2019-04-21T04:22:48.112Z,417.90
2019-04-21T04:25:15.734Z,466.00
2019-04-21T04:27:58.067Z,442.83
2019-04-21T04:30:19.740Z,462.43
2019-04-21T04:32:36.458Z,441.70
2019-04-21T04:35:26.396Z,437.70
2019-04-21T04:37:36.261Z,432.07
2019-04-21T04:40:13.364Z,455.80
2019-04-21T04:45:23.761Z,451.93
2019-04-21T04:47:51.243Z,417.13
2019-04-21T04:55:18.500Z,511.50
2019-04-21T05:00:28.751Z,460.53
2019-04-21T05:02:42.059Z,455.40
2019-04-21T05:05:19.544Z,458.57
2019-04-21T05:10:07.370Z,480.73
2019-04-21T05:12:36.754Z,436.00
2019-04-21T05:15:37.741Z,471.60
2019-04-21T05:18:08.691Z,424.90
2019-04-21T05:20:13.626Z,450.80
2019-04-21T05:22:35.325Z,419.97
2019-04-21T05:25:02.462Z,441.60
2019-04-21T05:27:33.599Z,417.27
2019-04-21T05:30:17.327Z,465.47
2019-04-21T05:33:05.729Z,421.83
2019-04-21T05:36:01.863Z,424.37
2019-04-21T05:38:27.274Z,428.87
2019-04-21T05:40:55.204Z,417.20
2019-04-21T05:43:35.262Z,423.47
2019-04-21T05:46:21.643Z,442.43
2019-04-21T05:48:39.764Z,450.83
2019-04-21T05:51:08.006Z,428.80
2019-04-21T05:53:36.184Z,492.13
2019-04-21T05:56:10.033Z,417.23
2019-04-21T05:58:40.956Z,445.47
2019-04-21T06:01:14.879Z,439.90
2019-04-21T06:03:47.646Z,426.10
2019-04-21T06:06:22.096Z,424.00
2019-04-21T06:08:53.697Z,439.17
2019-04-21T06:11:14.906Z,440.23
2019-04-21T06:16:12.051Z,438.70
2019-04-21T06:21:09.819Z,435.50
2019-04-21T06:23:49.775Z,415.97
2019-04-21T06:28:42.592Z,444.77
2019-04-21T06:31:14.611Z,458.70
2019-04-21T06:33:43.390Z,460.63
2019-04-21T06:41:31.572Z,465.90
2019-04-21T06:44:11.854Z,440.87
2019-04-21T06:46:30.960Z,425.70
2019-04-21T06:48:59.944Z,420.77
2019-04-21T06:51:27.479Z,429.63
2019-04-21T06:54:04.323Z,431.90
2019-04-21T06:56:33.663Z,422.80
2019-04-21T06:58:51.833Z,416.77
2019-04-21T07:01:24.127Z,431.07
2019-04-21T07:04:03.578Z,425.07
2019-04-21T07:06:24.655Z,418.53
2019-04-21T07:08:56.705Z,425.87
2019-04-21T07:11:21.779Z,417.43
2019-04-21T07:14:04.101Z,436.90
2019-04-21T07:16:25.407Z,415.30
2019-04-21T07:19:04.087Z,444.87
2019-04-21T07:21:19.698Z,412.10
2019-04-21T07:23:52.161Z,462.50
2019-04-21T07:26:19.497Z,414.60
2019-04-21T07:28:56.489Z,422.43
2019-04-21T07:31:24.987Z,424.47
2019-04-21T07:34:01.607Z,416.90
2019-04-21T07:36:30.919Z,411.00
2019-04-21T07:38:49.749Z,417.53
2019-04-21T07:41:18.411Z,404.70
2019-04-21T07:43:53.434Z,438.20
2019-04-21T07:46:27.433Z,412.37
2019-04-21T07:49:15.542Z,421.10
2019-04-21T07:52:00.493Z,418.47
2019-04-21T07:54:34.149Z,437.33
2019-04-21T07:56:40.119Z,405.07
2019-04-21T07:59:34.206Z,427.13
2019-04-21T08:01:56.434Z,411.83
2019-04-21T08:06:52.411Z,421.40
2019-04-21T08:09:28.118Z,393.03
2019-04-21T08:11:50.527Z,429.23
2019-04-21T08:14:26.595Z,457.37
2019-04-21T08:16:58.931Z,450.67
2019-04-21T08:19:26.517Z,441.27
2019-04-21T08:22:01.060Z,401.63
2019-04-21T08:24:20.028Z,452.73
2019-04-21T08:26:58.577Z,411.87
2019-04-21T08:29:37.978Z,425.50
2019-04-21T08:32:04.984Z,423.73
2019-04-21T08:34:29.937Z,435.73
2019-04-21T08:36:51.670Z,422.00
2019-04-21T08:39:30.055Z,419.13
2019-04-21T08:41:57.153Z,419.57
2019-04-21T08:44:33.852Z,434.60
2019-04-21T08:47:04.191Z,426.27
2019-04-21T08:49:26.863Z,419.33
2019-04-21T08:52:21.265Z,396.90
2019-04-21T08:54:26.495Z,434.13
2019-04-21T08:57:24.259Z,412.40
2019-04-21T09:00:12.712Z,437.87
2019-04-21T09:02:41.797Z,399.10
2019-04-21T09:05:13.495Z,425.27
2019-04-21T09:07:44.937Z,401.80
2019-04-21T09:10:09.728Z,449.03
2019-04-21T09:12:44.846Z,396.97
2019-04-21T09:15:17.428Z,462.90
2019-04-21T09:17:32.994Z,397.77
2019-04-21T09:20:16.928Z,425.60
2019-04-21T09:22:44.171Z,402.80
2019-04-21T09:25:11.650Z,443.30
2019-04-21T09:27:36.809Z,395.90
2019-04-21T09:29:55.867Z,423.40
2019-04-21T09:32:23.868Z,373.53
2019-04-21T09:34:51.315Z,425.00
2019-04-21T09:37:32.982Z,383.53
2019-04-21T09:39:52.434Z,403.07
2019-04-21T09:42:19.859Z,399.43
2019-04-21T09:44:52.263Z,415.00
2019-04-21T09:47:22.864Z,373.65
2019-04-21T09:49:49.422Z,418.43
2019-04-21T09:52:20.986Z,387.23
2019-04-21T09:54:56.427Z,432.65
2019-04-21T09:57:31.167Z,424.60
2019-04-21T09:59:56.641Z,396.27
2019-04-21T10:02:31.162Z,387.10
2019-04-21T10:04:48.355Z,407.67
2019-04-21T10:07:26.461Z,387.88
2019-04-21T10:09:47.780Z,404.20
2019-04-21T10:12:17.508Z,390.50
2019-04-21T10:14:45.227Z,413.18
2019-04-21T10:17:27.427Z,411.62
2019-04-21T10:19:55.730Z,402.10
2019-04-21T10:22:26.584Z,376.67
2019-04-21T10:24:54.373Z,416.85
2019-04-21T10:27:23.245Z,414.75
2019-04-21T10:29:52.192Z,421.90
2019-04-21T10:32:23.164Z,404.62
2019-04-21T10:34:49.689Z,441.15
2019-04-21T10:37:18.838Z,431.30
2019-04-21T10:39:47.525Z,468.45
2019-04-21T10:42:17.401Z,430.50
2019-04-21T10:44:45.448Z,420.18
2019-04-21T10:47:14.521Z,408.12
2019-04-21T10:49:42.549Z,447.93
2019-04-21T10:52:39.065Z,393.30
2019-04-21T10:55:26.317Z,378.65
2019-04-21T10:57:38.439Z,393.93
2019-04-21T11:00:09.129Z,371.05
2019-04-21T11:02:43.220Z,400.18
2019-04-21T11:05:12.437Z,391.73
2019-04-21T11:07:55.294Z,367.10
2019-04-21T11:10:16.164Z,397.40
2019-04-21T11:12:44.729Z,397.70
2019-04-21T11:15:17.169Z,387.38
2019-04-21T11:17:47.307Z,359.32
2019-04-21T11:20:17.103Z,419.00
2019-04-21T11:22:44.896Z,399.50
2019-04-21T11:25:12.878Z,342.70
2019-04-21T11:27:40.834Z,382.75
2019-04-21T11:30:09.547Z,381.75
2019-04-21T11:32:37.202Z,440.58
2019-04-21T11:35:05.328Z,384.40
2019-04-21T11:37:34.616Z,387.77
2019-04-21T11:40:10.331Z,390.43
2019-04-21T11:42:37.780Z,380.50
2019-04-21T11:45:06.367Z,367.68
2019-04-21T11:47:40.573Z,396.23
2019-04-21T11:50:08.443Z,362.42
2019-04-21T11:52:36.908Z,394.73
2019-04-21T11:55:05.237Z,390.05
2019-04-21T11:57:38.351Z,378.73
2019-04-21T12:00:05.971Z,372.82
2019-04-21T12:02:33.779Z,390.68
2019-04-21T12:05:01.413Z,404.55
2019-04-21T12:07:31.261Z,362.38
2019-04-21T12:09:59.682Z,436.62
2019-04-21T12:12:27.816Z,388.98
2019-04-21T12:14:55.508Z,401.77
2019-04-21T12:17:23.710Z,353.32
2019-04-21T12:19:54.512Z,388.40
2019-04-21T12:22:28.921Z,366.40
2019-04-21T12:24:53.348Z,387.33
2019-04-21T12:27:23.703Z,364.48
2019-04-21T12:29:51.700Z,382.45
2019-04-21T12:32:49.437Z,335.05
2019-04-21T12:35:18.093Z,358.25
2019-04-21T12:37:46.963Z,362.57
2019-04-21T12:40:14.949Z,337.38
2019-04-21T12:42:45.857Z,351.75
2019-04-21T12:45:15.104Z,341.57
2019-04-21T12:47:43.992Z,329.73
2019-04-21T12:50:12.895Z,327.85
2019-04-21T12:52:41.971Z,341.00
2019-04-21T12:55:09.819Z,340.18
2019-04-21T12:57:37.631Z,382.27
2019-04-21T13:00:09.059Z,366.00
2019-04-21T13:02:37.863Z,368.30
2019-04-21T13:05:07.381Z,374.67
2019-04-21T13:07:35.473Z,368.33
2019-04-21T13:10:04.444Z,400.57
2019-04-21T13:12:33.256Z,358.85
2019-04-21T13:15:02.864Z,389.25
2019-04-21T13:17:31.112Z,383.47
2019-04-21T13:19:59.092Z,423.40
2019-04-21T13:22:28.001Z,371.33
2019-04-21T13:24:55.897Z,433.83
2019-04-21T13:27:24.792Z,386.37
2019-04-21T13:29:52.842Z,454.47
2019-04-21T13:32:20.866Z,385.97
2019-04-21T13:34:48.255Z,489.60
2019-04-21T13:37:17.324Z,379.43
2019-04-21T13:40:29.362Z,432.93
2019-04-21T13:42:45.612Z,430.87
2019-04-21T13:45:12.143Z,418.80
2019-04-21T13:47:40.752Z,402.63
2019-04-21T13:50:08.972Z,402.37
2019-04-21T13:52:36.606Z,388.97
2019-04-21T13:55:05.552Z,422.50
2019-04-21T13:57:34.639Z,415.17
2019-04-21T14:00:03.609Z,424.17
2019-04-21T14:02:31.471Z,424.37
2019-04-21T14:04:59.261Z,400.80
2019-04-21T14:07:28.015Z,397.40
2019-04-21T14:10:00.685Z,431.63
2019-04-21T14:12:25.399Z,414.17
2019-04-21T14:14:54.407Z,416.60
2019-04-21T14:17:24.802Z,448.50
2019-04-21T14:19:53.152Z,468.43
2019-04-21T14:22:22.722Z,421.67
2019-04-21T14:24:50.269Z,448.73
2019-04-21T14:27:18.524Z,416.03
2019-04-21T14:29:46.234Z,448.23
2019-04-21T14:32:14.105Z,393.67
2019-04-21T14:34:42.010Z,446.63
2019-04-21T14:37:10.885Z,405.17
2019-04-21T14:39:50.419Z,434.87
2019-04-21T14:42:08.452Z,393.30
2019-04-21T14:44:36.599Z,455.13
2019-04-21T14:47:09.304Z,393.03
2019-04-21T14:49:55.291Z,446.90
2019-04-21T14:52:26.237Z,437.47
2019-04-21T14:55:09.950Z,456.90
2019-04-21T14:57:38.875Z,421.80
2019-04-21T15:00:11.139Z,431.33
2019-04-21T15:02:39.952Z,423.23
2019-04-21T15:05:09.447Z,439.83
2019-04-21T15:07:37.250Z,417.20
2019-04-21T15:10:14.541Z,457.53
2019-04-21T15:12:36.083Z,401.30
2019-04-21T15:15:05.578Z,406.63
2019-04-21T15:17:35.953Z,440.33
2019-04-21T15:20:10.348Z,418.77
2019-04-21T15:22:36.457Z,426.70
2019-04-21T15:25:05.802Z,462.70
2019-04-21T15:27:34.808Z,413.13
2019-04-21T15:30:03.149Z,429.53
2019-04-21T15:32:30.823Z,423.67
2019-04-21T15:34:58.491Z,423.43
2019-04-21T15:37:26.208Z,426.77
2019-04-21T15:39:53.978Z,445.23
2019-04-21T15:42:21.678Z,414.53
2019-04-21T15:44:50.521Z,512.20
2019-04-21T15:47:18.357Z,452.63
2019-04-21T15:50:02.995Z,450.07
2019-04-21T15:52:25.590Z,427.63
2019-04-21T15:54:58.963Z,458.87
2019-04-21T15:57:38.128Z,422.17
2019-04-21T16:00:20.651Z,441.60
2019-04-21T16:02:48.584Z,422.83
2019-04-21T16:05:17.115Z,430.53
2019-04-21T16:07:45.418Z,426.77
2019-04-21T16:10:28.305Z,416.00
2019-04-21T16:12:43.787Z,426.53
2019-04-21T16:15:14.410Z,424.40
2019-04-21T16:17:43.465Z,441.00
2019-04-21T16:20:12.229Z,403.40
2019-04-21T16:22:39.942Z,412.33
2019-04-21T16:25:10.624Z,393.90
2019-04-21T16:27:39.408Z,425.20
2019-04-21T16:30:10.082Z,433.37
2019-04-21T16:32:38.418Z,412.90
2019-04-21T16:35:10.469Z,485.67
2019-04-21T16:37:37.372Z,411.03
2019-04-21T16:40:07.512Z,446.23
2019-04-21T16:42:36.249Z,424.03
2019-04-21T16:45:05.367Z,406.90
2019-04-21T16:47:32.876Z,420.43
2019-04-21T16:50:01.641Z,445.93
2019-04-21T16:52:36.258Z,411.27
2019-04-21T16:55:12.926Z,453.97
2019-04-21T16:57:58.450Z,419.80
2019-04-21T17:00:31.595Z,446.27
2019-04-21T17:02:54.330Z,450.43
2019-04-21T17:05:22.732Z,419.33
2019-04-21T17:07:52.693Z,431.07
2019-04-21T17:10:20.421Z,437.13
2019-04-21T17:12:49.235Z,438.33
2019-04-21T17:15:33.794Z,444.63
2019-04-21T17:18:05.939Z,457.67
2019-04-21T17:20:30.996Z,467.00
2019-04-21T17:22:49.525Z,480.00
2019-04-21T17:25:18.234Z,458.83
2019-04-21T17:27:47.582Z,453.53
2019-04-21T17:30:16.660Z,453.73
2019-04-21T17:32:49.566Z,448.93
2019-04-21T17:35:16.309Z,475.60
2019-04-21T17:37:45.869Z,481.73
2019-04-21T17:40:22.392Z,466.23
2019-04-21T17:42:59.332Z,509.17
2019-04-21T17:45:21.198Z,458.37
2019-04-21T17:47:59.329Z,437.80
2019-04-21T17:50:56.407Z,448.57
2019-04-21T17:53:36.576Z,464.27
2019-04-21T17:56:23.436Z,459.00
2019-04-21T17:58:52.656Z,464.73
2019-04-21T18:01:26.371Z,451.33
2019-04-21T18:03:58.800Z,468.47
2019-04-21T18:06:25.722Z,451.77
2019-04-21T18:09:02.609Z,488.27
2019-04-21T18:11:18.133Z,475.13
2019-04-21T18:13:38.038Z,458.23
2019-04-21T18:16:13.355Z,521.43
2019-04-21T18:18:35.265Z,452.67
2019-04-21T18:21:09.039Z,442.63
2019-04-21T18:23:56.556Z,473.67
2019-04-21T18:26:29.090Z,470.17
2019-04-21T18:28:48.621Z,476.57
2019-04-21T18:31:16.668Z,453.67
2019-04-21T18:34:03.439Z,459.07
2019-04-21T18:36:38.048Z,429.57
2019-04-21T18:39:34.266Z,486.57
2019-04-21T18:42:09.290Z,443.57
2019-04-21T18:45:22.219Z,526.13
2019-04-21T18:47:49.830Z,457.63
2019-04-21T18:50:21.987Z,477.67
2019-04-21T18:53:04.849Z,461.03
2019-04-21T18:55:32.349Z,484.60
2019-04-21T18:57:56.330Z,470.00
2019-04-21T19:00:31.411Z,473.93
2019-04-21T19:02:57.624Z,442.70
2019-04-21T19:05:27.350Z,463.10
2019-04-21T19:08:08.908Z,458.23
2019-04-21T19:10:42.304Z,484.87
2019-04-21T19:15:48.443Z,463.43
2019-04-21T19:20:43.150Z,478.07
2019-04-21T19:23:13.962Z,472.73
2019-04-21T19:25:44.116Z,469.37
2019-04-21T19:28:09.716Z,497.90
2019-04-21T19:30:52.597Z,519.77
2019-04-21T19:33:14.702Z,460.07
2019-04-21T19:35:27.722Z,449.30
2019-04-21T19:38:02.099Z,469.53
2019-04-21T19:40:40.804Z,469.17
2019-04-21T19:43:03.409Z,470.80
2019-04-21T19:45:38.141Z,517.23
2019-04-21T19:48:15.330Z,467.27
2019-04-21T19:50:47.998Z,472.83
2019-04-21T19:53:03.095Z,490.67
2019-04-21T19:55:24.468Z,472.80
2019-04-21T19:57:52.719Z,477.43
2019-04-21T20:00:22.261Z,470.30
2019-04-21T20:02:50.492Z,460.17
2019-04-21T20:05:29.736Z,473.63
2019-04-21T20:08:03.734Z,486.17
2019-04-21T20:10:42.622Z,446.90
2019-04-21T20:13:07.199Z,513.37
2019-04-21T20:15:41.959Z,473.77
2019-04-21T20:18:00.268Z,456.13
2019-04-21T20:20:17.185Z,457.10
2019-04-21T20:22:48.540Z,455.23
2019-04-21T20:25:19.080Z,465.90
2019-04-21T20:27:58.156Z,467.27
2019-04-21T20:30:33.012Z,473.63
2019-04-21T20:33:15.145Z,461.63
2019-04-21T20:35:40.400Z,463.67
2019-04-21T20:38:00.382Z,470.70
2019-04-21T20:40:25.038Z,473.77
2019-04-21T20:43:09.181Z,469.70
2019-04-21T20:45:52.658Z,476.80
2019-04-21T20:47:53.201Z,482.90
2019-04-21T20:50:29.943Z,467.87
2019-04-21T20:53:06.189Z,453.93
2019-04-21T20:55:30.283Z,506.63
2019-04-21T20:57:58.260Z,467.93
2019-04-21T21:00:39.109Z,437.50
2019-04-21T21:03:07.138Z,460.87
2019-04-21T21:05:30.483Z,451.40
2019-04-21T21:08:11.553Z,465.53
2019-04-21T21:10:34.485Z,479.40
2019-04-21T21:13:14.220Z,434.27
2019-04-21T21:15:42.297Z,466.47
2019-04-21T21:20:35.678Z,470.07
2019-04-21T21:22:58.477Z,461.83
2019-04-21T21:25:41.696Z,443.60
2019-04-21T21:27:55.176Z,461.13
2019-04-21T21:30:26.975Z,468.23
2019-04-21T21:33:05.684Z,468.47
2019-04-21T21:35:31.043Z,458.63
2019-04-21T21:38:08.645Z,492.37
2019-04-21T21:40:31.645Z,472.67
2019-04-21T21:42:48.141Z,441.60
2019-04-21T21:45:19.919Z,449.50
2019-04-21T21:48:07.238Z,450.97
2019-04-21T21:50:26.139Z,439.13
2019-04-21T21:52:59.957Z,472.43
2019-04-21T21:55:19.304Z,450.83
2019-04-21T21:57:51.809Z,456.83
2019-04-21T22:00:25.901Z,474.63
2019-04-21T22:02:58.605Z,473.97
2019-04-21T22:05:27.993Z,449.70
2019-04-21T22:07:54.648Z,456.10
2019-04-21T22:10:23.159Z,467.07
2019-04-21T22:13:02.275Z,431.17
2019-04-21T22:15:24.908Z,459.00
2019-04-21T22:18:11.519Z,441.87
2019-04-21T22:20:37.373Z,532.23
2019-04-21T22:22:58.422Z,487.30
2019-04-21T22:25:26.883Z,468.17
2019-04-21T22:27:50.790Z,454.57
2019-04-21T22:30:27.163Z,468.20
2019-04-21T22:32:55.468Z,491.50
2019-04-21T22:35:28.876Z,460.57
2019-04-21T22:38:01.815Z,476.17
2019-04-21T22:40:27.967Z,451.60
2019-04-21T22:43:01.351Z,461.07
2019-04-21T22:45:17.986Z,456.13
2019-04-21T22:47:47.968Z,454.67
2019-04-21T22:50:30.582Z,455.53
2019-04-21T22:53:05.837Z,433.43
2019-04-21T22:55:33.436Z,462.47
2019-04-21T22:58:03.158Z,456.77
2019-04-21T23:00:37.671Z,475.63
2019-04-21T23:03:09.565Z,453.93
2019-04-21T23:05:36.100Z,472.23
2019-04-21T23:08:03.758Z,525.67
2019-04-21T23:10:31.541Z,462.17
2019-04-21T23:13:05.715Z,461.93
2019-04-21T23:15:38.364Z,444.20
2019-04-21T23:18:14.608Z,453.97
2019-04-21T23:20:47.631Z,445.63
2019-04-21T23:23:16.263Z,456.30
2019-04-21T23:25:44.261Z,458.23
2019-04-21T23:28:12.393Z,481.63
2019-04-21T23:30:52.928Z,467.33
2019-04-21T23:33:04.545Z,446.37
2019-04-21T23:35:34.267Z,450.73
2019-04-21T23:38:02.764Z,453.87
2019-04-21T23:40:27.414Z,462.40
2019-04-21T23:42:55.176Z,452.43
2019-04-21T23:45:25.148Z,469.63
2019-04-21T23:48:07.737Z,432.90
2019-04-21T23:50:34.244Z,490.87
2019-04-21T23:52:53.030Z,458.83
2019-04-21T23:55:21.254Z,443.57
2019-04-21T23:57:50.686Z,459.03
